sensor_id;sensor_type;location;lat;lon;timestamp;temperature;humidity
27114;DHT22;14648;49.730;8.614;2023-06-14T00:01:50;21.70;31.30
27114;DHT22;14648;49.730;8.614;2023-06-14T00:04:16;21.70;31.50
27114;DHT22;14648;49.730;8.614;2023-06-14T00:06:42;21.70;31.50
27114;DHT22;14648;49.730;8.614;2023-06-14T00:09:11;21.70;31.50
27114;DHT22;14648;49.730;8.614;2023-06-14T00:11:43;21.60;31.50
27114;DHT22;14648;49.730;8.614;2023-06-14T00:14:09;21.60;31.40
27114;DHT22;14648;49.730;8.614;2023-06-14T00:16:34;21.60;31.40
27114;DHT22;14648;49.730;8.614;2023-06-14T00:19:01;21.60;31.50
27114;DHT22;14648;49.730;8.614;2023-06-14T00:21:31;21.60;31.50
27114;DHT22;14648;49.730;8.614;2023-06-14T00:23:58;21.60;31.60
27114;DHT22;14648;49.730;8.614;2023-06-14T00:26:24;21.50;31.60
27114;DHT22;14648;49.730;8.614;2023-06-14T00:28:51;21.50;31.70
27114;DHT22;14648;49.730;8.614;2023-06-14T00:31:17;21.50;31.70
27114;DHT22;14648;49.730;8.614;2023-06-14T00:33:43;21.50;31.80
27114;DHT22;14648;49.730;8.614;2023-06-14T00:36:09;21.50;31.80
27114;DHT22;14648;49.730;8.614;2023-06-14T00:38:35;21.40;31.80
27114;DHT22;14648;49.730;8.614;2023-06-14T00:41:00;21.50;31.90
27114;DHT22;14648;49.730;8.614;2023-06-14T00:43:26;21.40;31.90
27114;DHT22;14648;49.730;8.614;2023-06-14T00:45:58;21.30;32.10
27114;DHT22;14648;49.730;8.614;2023-06-14T00:48:24;21.30;32.20
27114;DHT22;14648;49.730;8.614;2023-06-14T00:50:51;21.30;32.20
27114;DHT22;14648;49.730;8.614;2023-06-14T00:53:18;21.30;32.10
27114;DHT22;14648;49.730;8.614;2023-06-14T00:55:46;21.30;32.10
27114;DHT22;14648;49.730;8.614;2023-06-14T00:58:12;21.30;32.70
27114;DHT22;14648;49.730;8.614;2023-06-14T01:00:39;21.30;32.20
27114;DHT22;14648;49.730;8.614;2023-06-14T01:03:04;21.20;32.00
27114;DHT22;14648;49.730;8.614;2023-06-14T01:05:31;21.20;32.10
27114;DHT22;14648;49.730;8.614;2023-06-14T01:08:27;21.20;32.10
27114;DHT22;14648;49.730;8.614;2023-06-14T01:11:05;21.10;32.30
27114;DHT22;14648;49.730;8.614;2023-06-14T01:13:36;21.10;32.20
27114;DHT22;14648;49.730;8.614;2023-06-14T01:16:05;21.10;32.30
27114;DHT22;14648;49.730;8.614;2023-06-14T01:18:32;21.10;32.30
27114;DHT22;14648;49.730;8.614;2023-06-14T01:20:59;21.00;32.20
27114;DHT22;14648;49.730;8.614;2023-06-14T01:23:24;21.00;32.20
27114;DHT22;14648;49.730;8.614;2023-06-14T01:25:58;21.00;32.20
27114;DHT22;14648;49.730;8.614;2023-06-14T01:28:26;21.00;32.30
27114;DHT22;14648;49.730;8.614;2023-06-14T01:30:59;21.00;32.40
27114;DHT22;14648;49.730;8.614;2023-06-14T01:33:30;21.00;32.40
27114;DHT22;14648;49.730;8.614;2023-06-14T01:35:56;20.90;32.40
27114;DHT22;14648;49.730;8.614;2023-06-14T01:38:25;20.90;32.50
27114;DHT22;14648;49.730;8.614;2023-06-14T01:40:54;20.90;32.50
27114;DHT22;14648;49.730;8.614;2023-06-14T01:43:21;20.80;32.00
27114;DHT22;14648;49.730;8.614;2023-06-14T01:45:48;20.80;32.40
27114;DHT22;14648;49.730;8.614;2023-06-14T01:48:15;20.80;32.50
27114;DHT22;14648;49.730;8.614;2023-06-14T01:50:42;20.80;32.50
27114;DHT22;14648;49.730;8.614;2023-06-14T01:53:08;20.80;32.60
27114;DHT22;14648;49.730;8.614;2023-06-14T01:55:35;20.80;32.70
27114;DHT22;14648;49.730;8.614;2023-06-14T01:58:03;20.70;32.70
27114;DHT22;14648;49.730;8.614;2023-06-14T02:00:30;20.70;32.80
27114;DHT22;14648;49.730;8.614;2023-06-14T02:02:55;20.70;32.80
27114;DHT22;14648;49.730;8.614;2023-06-14T02:05:22;20.70;32.80
27114;DHT22;14648;49.730;8.614;2023-06-14T02:07:47;20.60;32.70
27114;DHT22;14648;49.730;8.614;2023-06-14T02:10:13;20.60;32.70
27114;DHT22;14648;49.730;8.614;2023-06-14T02:12:40;20.60;32.80
27114;DHT22;14648;49.730;8.614;2023-06-14T02:15:07;20.60;32.80
27114;DHT22;14648;49.730;8.614;2023-06-14T02:17:33;20.50;32.90
27114;DHT22;14648;49.730;8.614;2023-06-14T02:20:00;20.60;33.00
27114;DHT22;14648;49.730;8.614;2023-06-14T02:22:26;20.50;33.20
27114;DHT22;14648;49.730;8.614;2023-06-14T02:24:51;20.50;33.20
27114;DHT22;14648;49.730;8.614;2023-06-14T02:27:18;20.50;33.50
27114;DHT22;14648;49.730;8.614;2023-06-14T02:29:44;20.50;33.40
27114;DHT22;14648;49.730;8.614;2023-06-14T02:32:09;20.40;33.50
27114;DHT22;14648;49.730;8.614;2023-06-14T02:34:36;20.40;33.70
27114;DHT22;14648;49.730;8.614;2023-06-14T02:37:02;20.40;33.70
27114;DHT22;14648;49.730;8.614;2023-06-14T02:39:29;20.40;34.00
27114;DHT22;14648;49.730;8.614;2023-06-14T02:41:55;20.40;34.10
27114;DHT22;14648;49.730;8.614;2023-06-14T02:44:25;20.30;34.30
27114;DHT22;14648;49.730;8.614;2023-06-14T02:46:54;20.30;34.70
27114;DHT22;14648;49.730;8.614;2023-06-14T02:49:21;20.30;34.60
27114;DHT22;14648;49.730;8.614;2023-06-14T02:51:47;20.20;34.70
27114;DHT22;14648;49.730;8.614;2023-06-14T02:54:13;20.20;34.80
27114;DHT22;14648;49.730;8.614;2023-06-14T02:56:39;20.20;35.00
27114;DHT22;14648;49.730;8.614;2023-06-14T02:59:06;20.10;35.00
27114;DHT22;14648;49.730;8.614;2023-06-14T03:01:33;20.10;34.80
27114;DHT22;14648;49.730;8.614;2023-06-14T03:04:04;20.10;35.20
27114;DHT22;14648;49.730;8.614;2023-06-14T03:06:30;20.00;35.00
27114;DHT22;14648;49.730;8.614;2023-06-14T03:08:57;20.00;35.10
27114;DHT22;14648;49.730;8.614;2023-06-14T03:11:26;20.00;35.30
27114;DHT22;14648;49.730;8.614;2023-06-14T03:13:52;20.00;35.50
27114;DHT22;14648;49.730;8.614;2023-06-14T03:16:19;19.90;35.40
27114;DHT22;14648;49.730;8.614;2023-06-14T03:18:45;19.90;35.50
27114;DHT22;14648;49.730;8.614;2023-06-14T03:21:11;19.90;35.40
27114;DHT22;14648;49.730;8.614;2023-06-14T03:23:37;19.90;35.50
27114;DHT22;14648;49.730;8.614;2023-06-14T03:26:02;19.80;35.50
27114;DHT22;14648;49.730;8.614;2023-06-14T03:28:28;19.80;35.40
27114;DHT22;14648;49.730;8.614;2023-06-14T03:30:54;19.70;35.50
27114;DHT22;14648;49.730;8.614;2023-06-14T03:33:19;19.70;35.70
27114;DHT22;14648;49.730;8.614;2023-06-14T03:35:46;19.70;35.80
27114;DHT22;14648;49.730;8.614;2023-06-14T03:38:12;19.70;36.10
27114;DHT22;14648;49.730;8.614;2023-06-14T03:40:38;19.70;36.20
27114;DHT22;14648;49.730;8.614;2023-06-14T03:43:03;19.70;36.20
27114;DHT22;14648;49.730;8.614;2023-06-14T03:45:29;19.60;36.30
27114;DHT22;14648;49.730;8.614;2023-06-14T03:47:55;19.60;36.40
27114;DHT22;14648;49.730;8.614;2023-06-14T03:50:21;19.60;36.50
27114;DHT22;14648;49.730;8.614;2023-06-14T03:52:48;19.60;36.50
27114;DHT22;14648;49.730;8.614;2023-06-14T03:55:14;19.50;36.60
27114;DHT22;14648;49.730;8.614;2023-06-14T03:57:41;19.50;36.70
27114;DHT22;14648;49.730;8.614;2023-06-14T04:00:09;19.50;36.70
27114;DHT22;14648;49.730;8.614;2023-06-14T04:02:35;19.40;36.70
27114;DHT22;14648;49.730;8.614;2023-06-14T04:05:02;19.40;37.00
27114;DHT22;14648;49.730;8.614;2023-06-14T04:07:28;19.40;37.00
27114;DHT22;14648;49.730;8.614;2023-06-14T04:09:55;19.30;37.20
27114;DHT22;14648;49.730;8.614;2023-06-14T04:12:20;19.30;37.20
27114;DHT22;14648;49.730;8.614;2023-06-14T04:14:46;19.30;37.20
27114;DHT22;14648;49.730;8.614;2023-06-14T04:17:12;19.20;37.30
27114;DHT22;14648;49.730;8.614;2023-06-14T04:19:38;19.20;37.50
27114;DHT22;14648;49.730;8.614;2023-06-14T04:22:03;19.10;37.60
27114;DHT22;14648;49.730;8.614;2023-06-14T04:24:29;19.10;37.80
27114;DHT22;14648;49.730;8.614;2023-06-14T04:27:00;19.00;37.90
27114;DHT22;14648;49.730;8.614;2023-06-14T04:29:26;19.00;38.10
27114;DHT22;14648;49.730;8.614;2023-06-14T04:31:55;18.90;38.20
27114;DHT22;14648;49.730;8.614;2023-06-14T04:34:25;18.90;38.50
27114;DHT22;14648;49.730;8.614;2023-06-14T04:36:55;18.90;38.60
27114;DHT22;14648;49.730;8.614;2023-06-14T04:39:22;18.90;38.90
27114;DHT22;14648;49.730;8.614;2023-06-14T04:41:48;18.80;39.10
27114;DHT22;14648;49.730;8.614;2023-06-14T04:44:18;18.80;38.90
27114;DHT22;14648;49.730;8.614;2023-06-14T04:46:45;18.80;38.90
27114;DHT22;14648;49.730;8.614;2023-06-14T04:49:15;18.80;39.00
27114;DHT22;14648;49.730;8.614;2023-06-14T04:51:42;18.70;39.20
27114;DHT22;14648;49.730;8.614;2023-06-14T04:54:09;18.70;39.20
27114;DHT22;14648;49.730;8.614;2023-06-14T04:56:41;18.70;39.40
27114;DHT22;14648;49.730;8.614;2023-06-14T04:59:08;18.70;39.40
27114;DHT22;14648;49.730;8.614;2023-06-14T05:01:34;18.70;39.30
27114;DHT22;14648;49.730;8.614;2023-06-14T05:04:00;18.80;39.40
27114;DHT22;14648;49.730;8.614;2023-06-14T05:06:26;18.80;39.40
27114;DHT22;14648;49.730;8.614;2023-06-14T05:08:53;18.80;39.40
27114;DHT22;14648;49.730;8.614;2023-06-14T05:11:19;18.80;39.40
27114;DHT22;14648;49.730;8.614;2023-06-14T05:13:45;18.90;40.10
27114;DHT22;14648;49.730;8.614;2023-06-14T05:16:12;18.80;39.40
27114;DHT22;14648;49.730;8.614;2023-06-14T05:18:38;18.80;39.40
27114;DHT22;14648;49.730;8.614;2023-06-14T05:21:05;18.80;39.40
27114;DHT22;14648;49.730;8.614;2023-06-14T05:23:31;18.80;39.60
27114;DHT22;14648;49.730;8.614;2023-06-14T05:25:57;18.80;39.60
27114;DHT22;14648;49.730;8.614;2023-06-14T05:28:24;18.80;39.50
27114;DHT22;14648;49.730;8.614;2023-06-14T05:30:50;18.80;39.60
27114;DHT22;14648;49.730;8.614;2023-06-14T05:33:16;18.90;39.70
27114;DHT22;14648;49.730;8.614;2023-06-14T05:35:42;18.90;39.70
27114;DHT22;14648;49.730;8.614;2023-06-14T05:38:08;18.90;39.70
27114;DHT22;14648;49.730;8.614;2023-06-14T05:40:34;18.90;39.70
27114;DHT22;14648;49.730;8.614;2023-06-14T05:42:59;18.90;39.70
27114;DHT22;14648;49.730;8.614;2023-06-14T05:45:28;18.90;39.60
27114;DHT22;14648;49.730;8.614;2023-06-14T05:47:53;18.90;39.60
27114;DHT22;14648;49.730;8.614;2023-06-14T05:50:21;18.90;39.60
27114;DHT22;14648;49.730;8.614;2023-06-14T05:52:47;19.00;39.60
27114;DHT22;14648;49.730;8.614;2023-06-14T05:55:13;19.00;39.60
27114;DHT22;14648;49.730;8.614;2023-06-14T05:57:38;19.00;39.50
27114;DHT22;14648;49.730;8.614;2023-06-14T06:00:06;19.00;39.50
27114;DHT22;14648;49.730;8.614;2023-06-14T06:02:43;19.10;39.70
27114;DHT22;14648;49.730;8.614;2023-06-14T06:05:13;19.10;39.70
27114;DHT22;14648;49.730;8.614;2023-06-14T06:07:39;19.10;39.60
27114;DHT22;14648;49.730;8.614;2023-06-14T06:10:11;19.10;39.50
27114;DHT22;14648;49.730;8.614;2023-06-14T06:12:37;19.20;39.50
27114;DHT22;14648;49.730;8.614;2023-06-14T06:15:03;19.20;39.40
27114;DHT22;14648;49.730;8.614;2023-06-14T06:17:29;19.30;40.00
27114;DHT22;14648;49.730;8.614;2023-06-14T06:19:55;19.20;39.40
27114;DHT22;14648;49.730;8.614;2023-06-14T06:22:21;19.30;39.40
27114;DHT22;14648;49.730;8.614;2023-06-14T06:24:46;19.40;39.40
27114;DHT22;14648;49.730;8.614;2023-06-14T06:27:12;19.50;39.40
27114;DHT22;14648;49.730;8.614;2023-06-14T06:29:38;19.50;39.40
27114;DHT22;14648;49.730;8.614;2023-06-14T06:32:04;19.60;39.30
27114;DHT22;14648;49.730;8.614;2023-06-14T06:34:30;19.70;39.30
27114;DHT22;14648;49.730;8.614;2023-06-14T06:36:56;19.80;39.30
27114;DHT22;14648;49.730;8.614;2023-06-14T06:39:21;19.90;39.30
27114;DHT22;14648;49.730;8.614;2023-06-14T06:41:47;20.00;39.10
27114;DHT22;14648;49.730;8.614;2023-06-14T06:44:13;20.10;39.30
27114;DHT22;14648;49.730;8.614;2023-06-14T06:46:38;20.20;39.10
27114;DHT22;14648;49.730;8.614;2023-06-14T06:49:08;20.30;39.20
27114;DHT22;14648;49.730;8.614;2023-06-14T06:54:07;20.40;39.20
27114;DHT22;14648;49.730;8.614;2023-06-14T06:56:33;20.40;39.10
27114;DHT22;14648;49.730;8.614;2023-06-14T06:59:00;20.50;39.20
27114;DHT22;14648;49.730;8.614;2023-06-14T07:01:26;20.60;39.00
27114;DHT22;14648;49.730;8.614;2023-06-14T07:03:55;20.70;39.10
27114;DHT22;14648;49.730;8.614;2023-06-14T07:06:21;20.70;39.80
27114;DHT22;14648;49.730;8.614;2023-06-14T07:08:47;20.80;39.10
27114;DHT22;14648;49.730;8.614;2023-06-14T07:11:14;20.90;39.10
27114;DHT22;14648;49.730;8.614;2023-06-14T07:13:40;21.00;39.00
27114;DHT22;14648;49.730;8.614;2023-06-14T07:16:06;21.00;39.10
27114;DHT22;14648;49.730;8.614;2023-06-14T07:18:31;21.00;39.00
27114;DHT22;14648;49.730;8.614;2023-06-14T07:20:57;21.10;39.20
27114;DHT22;14648;49.730;8.614;2023-06-14T07:23:23;21.20;39.20
27114;DHT22;14648;49.730;8.614;2023-06-14T07:25:49;21.30;39.10
27114;DHT22;14648;49.730;8.614;2023-06-14T07:28:16;21.30;39.20
27114;DHT22;14648;49.730;8.614;2023-06-14T07:30:43;21.30;39.10
27114;DHT22;14648;49.730;8.614;2023-06-14T07:33:08;21.40;38.90
27114;DHT22;14648;49.730;8.614;2023-06-14T07:35:36;21.50;39.00
27114;DHT22;14648;49.730;8.614;2023-06-14T07:38:02;21.60;38.80
27114;DHT22;14648;49.730;8.614;2023-06-14T07:40:28;21.60;38.60
27114;DHT22;14648;49.730;8.614;2023-06-14T07:42:53;21.60;38.80
27114;DHT22;14648;49.730;8.614;2023-06-14T07:45:23;21.80;38.90
27114;DHT22;14648;49.730;8.614;2023-06-14T07:47:48;21.90;39.10
27114;DHT22;14648;49.730;8.614;2023-06-14T07:50:15;22.00;38.90
27114;DHT22;14648;49.730;8.614;2023-06-14T07:52:41;22.10;39.00
27114;DHT22;14648;49.730;8.614;2023-06-14T07:55:07;22.20;38.70
27114;DHT22;14648;49.730;8.614;2023-06-14T07:57:33;22.20;38.10
27114;DHT22;14648;49.730;8.614;2023-06-14T07:59:58;22.30;38.10
27114;DHT22;14648;49.730;8.614;2023-06-14T08:02:24;22.40;38.10
27114;DHT22;14648;49.730;8.614;2023-06-14T08:04:50;22.40;38.20
27114;DHT22;14648;49.730;8.614;2023-06-14T08:07:15;22.50;37.80
27114;DHT22;14648;49.730;8.614;2023-06-14T08:09:41;22.60;37.80
27114;DHT22;14648;49.730;8.614;2023-06-14T08:12:07;22.70;38.00
27114;DHT22;14648;49.730;8.614;2023-06-14T08:14:35;22.80;37.70
27114;DHT22;14648;49.730;8.614;2023-06-14T08:17:01;22.90;37.80
27114;DHT22;14648;49.730;8.614;2023-06-14T08:19:27;23.00;37.90
27114;DHT22;14648;49.730;8.614;2023-06-14T08:21:53;23.10;37.90
27114;DHT22;14648;49.730;8.614;2023-06-14T08:24:23;23.20;37.60
27114;DHT22;14648;49.730;8.614;2023-06-14T08:26:50;23.30;37.60
27114;DHT22;14648;49.730;8.614;2023-06-14T08:29:16;23.40;38.30
27114;DHT22;14648;49.730;8.614;2023-06-14T08:31:42;23.50;37.40
27114;DHT22;14648;49.730;8.614;2023-06-14T08:34:07;23.50;36.80
27114;DHT22;14648;49.730;8.614;2023-06-14T08:36:33;23.60;36.40
27114;DHT22;14648;49.730;8.614;2023-06-14T08:39:00;23.70;36.60
27114;DHT22;14648;49.730;8.614;2023-06-14T08:41:28;23.70;36.90
27114;DHT22;14648;49.730;8.614;2023-06-14T08:43:56;23.80;36.80
27114;DHT22;14648;49.730;8.614;2023-06-14T08:46:23;23.90;36.40
27114;DHT22;14648;49.730;8.614;2023-06-14T08:48:55;24.00;36.40
27114;DHT22;14648;49.730;8.614;2023-06-14T08:51:25;24.10;35.70
27114;DHT22;14648;49.730;8.614;2023-06-14T08:53:54;24.10;35.70
27114;DHT22;14648;49.730;8.614;2023-06-14T08:56:27;24.20;35.10
27114;DHT22;14648;49.730;8.614;2023-06-14T08:58:55;24.20;35.20
27114;DHT22;14648;49.730;8.614;2023-06-14T09:01:22;24.30;35.20
27114;DHT22;14648;49.730;8.614;2023-06-14T09:03:49;24.30;35.00
27114;DHT22;14648;49.730;8.614;2023-06-14T09:06:15;24.40;34.50
27114;DHT22;14648;49.730;8.614;2023-06-14T09:08:46;24.50;34.40
27114;DHT22;14648;49.730;8.614;2023-06-14T09:11:14;24.60;34.10
27114;DHT22;14648;49.730;8.614;2023-06-14T09:13:42;24.70;33.80
27114;DHT22;14648;49.730;8.614;2023-06-14T09:16:08;24.70;33.80
27114;DHT22;14648;49.730;8.614;2023-06-14T09:18:35;24.80;33.90
27114;DHT22;14648;49.730;8.614;2023-06-14T09:21:13;24.90;33.60
27114;DHT22;14648;49.730;8.614;2023-06-14T09:23:42;25.00;33.00
27114;DHT22;14648;49.730;8.614;2023-06-14T09:28:49;25.10;32.10
27114;DHT22;14648;49.730;8.614;2023-06-14T09:31:20;25.10;32.20
27114;DHT22;14648;49.730;8.614;2023-06-14T09:33:50;25.30;32.30
27114;DHT22;14648;49.730;8.614;2023-06-14T09:36:22;25.30;32.10
27114;DHT22;14648;49.730;8.614;2023-06-14T09:39:07;25.40;31.50
27114;DHT22;14648;49.730;8.614;2023-06-14T09:41:38;25.50;32.00
27114;DHT22;14648;49.730;8.614;2023-06-14T09:44:09;25.50;31.40
27114;DHT22;14648;49.730;8.614;2023-06-14T09:46:37;25.60;31.20
27114;DHT22;14648;49.730;8.614;2023-06-14T09:49:04;25.70;31.00
27114;DHT22;14648;49.730;8.614;2023-06-14T09:51:31;25.70;31.10
27114;DHT22;14648;49.730;8.614;2023-06-14T09:54:00;25.80;31.10
27114;DHT22;14648;49.730;8.614;2023-06-14T09:56:33;25.90;31.20
27114;DHT22;14648;49.730;8.614;2023-06-14T09:59:04;26.00;31.70
27114;DHT22;14648;49.730;8.614;2023-06-14T10:01:36;26.10;30.90
27114;DHT22;14648;49.730;8.614;2023-06-14T10:04:07;26.10;30.60
27114;DHT22;14648;49.730;8.614;2023-06-14T10:06:40;26.20;30.60
27114;DHT22;14648;49.730;8.614;2023-06-14T10:09:09;26.20;30.60
27114;DHT22;14648;49.730;8.614;2023-06-14T10:11:36;26.20;30.30
27114;DHT22;14648;49.730;8.614;2023-06-14T10:14:04;26.30;29.50
27114;DHT22;14648;49.730;8.614;2023-06-14T10:16:34;26.30;29.60
27114;DHT22;14648;49.730;8.614;2023-06-14T10:25:30;26.50;29.60
27114;DHT22;14648;49.730;8.614;2023-06-14T10:28:17;26.60;30.10
27114;DHT22;14648;49.730;8.614;2023-06-14T10:31:09;26.70;30.20
27114;DHT22;14648;49.730;8.614;2023-06-14T10:33:41;26.90;30.00
27114;DHT22;14648;49.730;8.614;2023-06-14T10:36:25;27.00;30.10
27114;DHT22;14648;49.730;8.614;2023-06-14T10:39:18;27.20;29.80
27114;DHT22;14648;49.730;8.614;2023-06-14T10:41:52;27.20;30.00
27114;DHT22;14648;49.730;8.614;2023-06-14T10:46:54;27.40;29.40
27114;DHT22;14648;49.730;8.614;2023-06-14T10:49:37;27.50;29.10
27114;DHT22;14648;49.730;8.614;2023-06-14T10:52:15;27.50;28.40
27114;DHT22;14648;49.730;8.614;2023-06-14T10:57:57;27.50;28.90
27114;DHT22;14648;49.730;8.614;2023-06-14T11:00:25;27.60;28.60
27114;DHT22;14648;49.730;8.614;2023-06-14T11:05:58;27.80;28.70
27114;DHT22;14648;49.730;8.614;2023-06-14T11:11:32;27.80;28.80
27114;DHT22;14648;49.730;8.614;2023-06-14T11:14:01;27.90;28.50
27114;DHT22;14648;49.730;8.614;2023-06-14T11:16:28;28.10;29.40
27114;DHT22;14648;49.730;8.614;2023-06-14T11:18:54;28.20;28.70
27114;DHT22;14648;49.730;8.614;2023-06-14T11:21:20;28.20;29.10
27114;DHT22;14648;49.730;8.614;2023-06-14T11:23:50;28.30;29.10
27114;DHT22;14648;49.730;8.614;2023-06-14T11:26:25;28.30;28.70
27114;DHT22;14648;49.730;8.614;2023-06-14T11:28:58;28.50;28.40
27114;DHT22;14648;49.730;8.614;2023-06-14T11:31:25;28.50;28.50
27114;DHT22;14648;49.730;8.614;2023-06-14T11:33:59;28.50;28.50
27114;DHT22;14648;49.730;8.614;2023-06-14T11:36:33;28.40;28.60
27114;DHT22;14648;49.730;8.614;2023-06-14T11:41:44;28.30;28.90
27114;DHT22;14648;49.730;8.614;2023-06-14T11:44:10;28.40;28.10
27114;DHT22;14648;49.730;8.614;2023-06-14T11:46:37;28.50;27.60
27114;DHT22;14648;49.730;8.614;2023-06-14T11:49:03;28.50;27.60
27114;DHT22;14648;49.730;8.614;2023-06-14T11:51:34;28.50;27.40
27114;DHT22;14648;49.730;8.614;2023-06-14T11:54:02;28.40;27.70
27114;DHT22;14648;49.730;8.614;2023-06-14T11:56:29;28.30;27.60
27114;DHT22;14648;49.730;8.614;2023-06-14T11:58:56;28.40;27.80
27114;DHT22;14648;49.730;8.614;2023-06-14T12:01:22;28.50;27.40
27114;DHT22;14648;49.730;8.614;2023-06-14T12:03:50;28.60;27.10
27114;DHT22;14648;49.730;8.614;2023-06-14T12:06:16;28.60;27.00
27114;DHT22;14648;49.730;8.614;2023-06-14T12:08:55;28.50;26.80
27114;DHT22;14648;49.730;8.614;2023-06-14T12:11:21;28.40;26.70
27114;DHT22;14648;49.730;8.614;2023-06-14T12:13:48;28.20;27.10
27114;DHT22;14648;49.730;8.614;2023-06-14T12:16:14;28.00;27.50
27114;DHT22;14648;49.730;8.614;2023-06-14T12:18:41;27.90;27.50
27114;DHT22;14648;49.730;8.614;2023-06-14T12:21:09;27.80;28.10
27114;DHT22;14648;49.730;8.614;2023-06-14T12:23:49;27.80;27.80
27114;DHT22;14648;49.730;8.614;2023-06-14T12:26:15;28.10;27.70
27114;DHT22;14648;49.730;8.614;2023-06-14T12:28:43;28.10;27.40
27114;DHT22;14648;49.730;8.614;2023-06-14T12:31:10;28.10;27.80
27114;DHT22;14648;49.730;8.614;2023-06-14T12:33:37;28.00;28.30
27114;DHT22;14648;49.730;8.614;2023-06-14T12:36:05;27.90;27.90
27114;DHT22;14648;49.730;8.614;2023-06-14T12:38:32;27.80;28.10
27114;DHT22;14648;49.730;8.614;2023-06-14T12:40:58;27.80;28.10
27114;DHT22;14648;49.730;8.614;2023-06-14T12:43:24;27.90;27.60
27114;DHT22;14648;49.730;8.614;2023-06-14T12:45:50;28.10;27.40
27114;DHT22;14648;49.730;8.614;2023-06-14T12:48:16;28.30;27.10
27114;DHT22;14648;49.730;8.614;2023-06-14T12:50:41;28.50;27.40
27114;DHT22;14648;49.730;8.614;2023-06-14T12:53:07;28.60;27.70
27114;DHT22;14648;49.730;8.614;2023-06-14T12:55:33;28.90;27.10
27114;DHT22;14648;49.730;8.614;2023-06-14T12:57:59;29.10;27.10
27114;DHT22;14648;49.730;8.614;2023-06-14T13:00:25;29.30;26.90
27114;DHT22;14648;49.730;8.614;2023-06-14T13:02:56;29.40;26.50
27114;DHT22;14648;49.730;8.614;2023-06-14T13:05:22;29.50;26.10
27114;DHT22;14648;49.730;8.614;2023-06-14T13:07:49;29.50;26.00
27114;DHT22;14648;49.730;8.614;2023-06-14T13:10:16;29.40;26.20
27114;DHT22;14648;49.730;8.614;2023-06-14T13:12:42;29.20;26.60
27114;DHT22;14648;49.730;8.614;2023-06-14T13:15:09;29.20;26.70
27114;DHT22;14648;49.730;8.614;2023-06-14T13:17:35;29.20;26.60
27114;DHT22;14648;49.730;8.614;2023-06-14T13:20:07;29.30;26.40
27114;DHT22;14648;49.730;8.614;2023-06-14T13:22:37;29.60;26.00
27114;DHT22;14648;49.730;8.614;2023-06-14T13:25:03;29.70;26.10
27114;DHT22;14648;49.730;8.614;2023-06-14T13:27:29;29.80;26.30
27114;DHT22;14648;49.730;8.614;2023-06-14T13:29:55;29.70;26.00
27114;DHT22;14648;49.730;8.614;2023-06-14T13:32:22;29.80;25.90
27114;DHT22;14648;49.730;8.614;2023-06-14T13:34:48;30.00;26.20
27114;DHT22;14648;49.730;8.614;2023-06-14T13:37:14;30.10;26.20
27114;DHT22;14648;49.730;8.614;2023-06-14T13:39:40;30.10;26.40
27114;DHT22;14648;49.730;8.614;2023-06-14T13:42:06;30.20;26.20
27114;DHT22;14648;49.730;8.614;2023-06-14T13:44:32;30.40;26.90
27114;DHT22;14648;49.730;8.614;2023-06-14T13:46:57;30.40;26.10
27114;DHT22;14648;49.730;8.614;2023-06-14T13:49:23;30.40;25.90
27114;DHT22;14648;49.730;8.614;2023-06-14T13:51:49;30.30;25.70
27114;DHT22;14648;49.730;8.614;2023-06-14T13:54:15;30.40;25.80
27114;DHT22;14648;49.730;8.614;2023-06-14T13:56:41;30.30;25.70
27114;DHT22;14648;49.730;8.614;2023-06-14T13:59:07;30.10;25.90
27114;DHT22;14648;49.730;8.614;2023-06-14T14:01:33;30.00;26.00
27114;DHT22;14648;49.730;8.614;2023-06-14T14:03:58;29.80;25.80
27114;DHT22;14648;49.730;8.614;2023-06-14T14:06:26;29.60;26.00
27114;DHT22;14648;49.730;8.614;2023-06-14T14:08:52;29.40;26.00
27114;DHT22;14648;49.730;8.614;2023-06-14T14:11:19;29.30;26.20
27114;DHT22;14648;49.730;8.614;2023-06-14T14:13:45;29.20;25.90
27114;DHT22;14648;49.730;8.614;2023-06-14T14:16:12;29.20;26.00
27114;DHT22;14648;49.730;8.614;2023-06-14T14:18:38;29.40;25.80
27114;DHT22;14648;49.730;8.614;2023-06-14T14:21:04;29.50;25.60
27114;DHT22;14648;49.730;8.614;2023-06-14T14:23:31;29.70;25.50
27114;DHT22;14648;49.730;8.614;2023-06-14T14:25:57;29.90;25.20
27114;DHT22;14648;49.730;8.614;2023-06-14T14:28:23;29.90;25.00
27114;DHT22;14648;49.730;8.614;2023-06-14T14:30:48;29.90;25.40
27114;DHT22;14648;49.730;8.614;2023-06-14T14:33:14;30.00;25.80
27114;DHT22;14648;49.730;8.614;2023-06-14T14:35:47;30.10;25.50
27114;DHT22;14648;49.730;8.614;2023-06-14T14:38:13;30.30;25.00
27114;DHT22;14648;49.730;8.614;2023-06-14T14:40:41;30.40;24.70
27114;DHT22;14648;49.730;8.614;2023-06-14T14:43:07;30.50;24.10
27114;DHT22;14648;49.730;8.614;2023-06-14T14:45:32;30.60;24.60
27114;DHT22;14648;49.730;8.614;2023-06-14T14:48:04;30.60;23.90
27114;DHT22;14648;49.730;8.614;2023-06-14T14:50:30;30.60;23.70
27114;DHT22;14648;49.730;8.614;2023-06-14T14:52:56;30.60;23.70
27114;DHT22;14648;49.730;8.614;2023-06-14T14:55:22;30.50;23.80
27114;DHT22;14648;49.730;8.614;2023-06-14T14:57:47;30.40;24.00
27114;DHT22;14648;49.730;8.614;2023-06-14T15:00:13;30.30;24.40
27114;DHT22;14648;49.730;8.614;2023-06-14T15:02:39;30.20;24.30
27114;DHT22;14648;49.730;8.614;2023-06-14T15:05:05;30.30;25.00
27114;DHT22;14648;49.730;8.614;2023-06-14T15:07:31;30.30;24.30
27114;DHT22;14648;49.730;8.614;2023-06-14T15:09:59;30.30;24.10
27114;DHT22;14648;49.730;8.614;2023-06-14T15:12:25;30.40;23.80
27114;DHT22;14648;49.730;8.614;2023-06-14T15:14:51;30.30;23.80
27114;DHT22;14648;49.730;8.614;2023-06-14T15:17:20;30.30;24.00
27114;DHT22;14648;49.730;8.614;2023-06-14T15:19:47;30.30;23.80
27114;DHT22;14648;49.730;8.614;2023-06-14T15:22:13;30.20;23.70
27114;DHT22;14648;49.730;8.614;2023-06-14T15:24:40;30.20;23.80
27114;DHT22;14648;49.730;8.614;2023-06-14T15:27:07;30.20;23.80
27114;DHT22;14648;49.730;8.614;2023-06-14T15:29:34;30.10;23.90
27114;DHT22;14648;49.730;8.614;2023-06-14T15:32:03;30.00;24.10
27114;DHT22;14648;49.730;8.614;2023-06-14T15:34:30;30.00;24.10
27114;DHT22;14648;49.730;8.614;2023-06-14T15:36:56;29.90;23.70
27114;DHT22;14648;49.730;8.614;2023-06-14T15:39:25;29.90;23.40
27114;DHT22;14648;49.730;8.614;2023-06-14T15:41:56;29.80;23.40
27114;DHT22;14648;49.730;8.614;2023-06-14T15:44:21;29.70;23.30
27114;DHT22;14648;49.730;8.614;2023-06-14T15:46:47;29.60;23.40
27114;DHT22;14648;49.730;8.614;2023-06-14T15:49:13;29.50;23.60
27114;DHT22;14648;49.730;8.614;2023-06-14T15:51:39;29.50;23.70
27114;DHT22;14648;49.730;8.614;2023-06-14T15:54:05;29.50;23.50
27114;DHT22;14648;49.730;8.614;2023-06-14T15:56:31;29.40;23.50
27114;DHT22;14648;49.730;8.614;2023-06-14T15:58:57;29.30;23.50